createdAt,value
2018-07-09T00:00:05.975Z,86.10
2018-07-09T00:02:34.213Z,85.61
2018-07-09T00:05:02.087Z,85.29
2018-07-09T00:07:29.974Z,85.50
2018-07-09T00:09:57.837Z,86.06
2018-07-09T00:12:25.672Z,85.86
2018-07-09T00:14:53.590Z,86.17
2018-07-09T00:17:21.497Z,86.10
2018-07-09T00:19:49.421Z,85.60
2018-07-09T00:22:17.285Z,85.51
2018-07-09T00:24:45.209Z,85.19
2018-07-09T00:27:13.078Z,85.71
2018-07-09T00:29:41.029Z,85.00
2018-07-09T00:32:09.005Z,85.64
2018-07-09T00:34:36.995Z,86.17
2018-07-09T00:37:04.989Z,85.90
2018-07-09T00:39:32.866Z,85.56
2018-07-09T00:42:01.282Z,85.49
2018-07-09T00:44:29.365Z,84.90
2018-07-09T00:46:57.293Z,86.50
2018-07-09T00:49:25.317Z,85.36
2018-07-09T00:51:53.410Z,84.96
2018-07-09T00:54:21.431Z,84.83
2018-07-09T00:56:49.938Z,85.21
2018-07-09T00:59:17.922Z,85.83
2018-07-09T01:01:46.134Z,85.44
2018-07-09T01:04:13.954Z,85.34
2018-07-09T01:06:41.892Z,85.24
2018-07-09T01:09:09.800Z,84.75
2018-07-09T01:11:44.738Z,85.25
2018-07-09T01:14:12.813Z,85.17
2018-07-09T01:16:40.733Z,85.33
2018-07-09T01:19:08.546Z,85.75
2018-07-09T01:21:36.442Z,85.29
2018-07-09T01:24:04.390Z,85.17
2018-07-09T01:26:32.282Z,86.47
2018-07-09T01:29:00.327Z,86.70
2018-07-09T01:31:28.181Z,85.64
2018-07-09T01:33:56.072Z,86.36
2018-07-09T01:36:24.378Z,85.69
2018-07-09T01:38:52.285Z,85.38
2018-07-09T01:41:20.140Z,85.96
2018-07-09T01:43:48.003Z,85.16
2018-07-09T01:46:15.822Z,85.31
2018-07-09T01:48:43.671Z,84.94
2018-07-09T01:51:11.538Z,85.11
2018-07-09T01:53:39.340Z,85.41
2018-07-09T01:56:07.193Z,85.58
2018-07-09T01:58:35.035Z,85.82
2018-07-09T02:01:02.931Z,86.08
2018-07-09T02:03:30.838Z,85.46
2018-07-09T02:05:58.706Z,86.67
2018-07-09T02:08:26.594Z,85.27
2018-07-09T02:10:54.433Z,85.95
2018-07-09T02:13:22.289Z,85.00
2018-07-09T02:15:50.135Z,84.68
2018-07-09T02:18:17.984Z,84.92
2018-07-09T02:20:45.838Z,85.44
2018-07-09T02:23:13.663Z,85.88
2018-07-09T02:25:41.509Z,86.00
2018-07-09T02:28:09.377Z,85.09
2018-07-09T02:30:37.222Z,85.95
2018-07-09T02:33:05.050Z,85.44
2018-07-09T02:35:32.871Z,85.50
2018-07-09T02:38:00.729Z,85.24
2018-07-09T02:40:28.562Z,84.79
2018-07-09T02:42:56.378Z,85.01
2018-07-09T02:45:24.193Z,85.00
2018-07-09T02:47:52.002Z,85.12
2018-07-09T02:50:19.845Z,85.09
2018-07-09T02:52:47.674Z,84.58
2018-07-09T02:55:15.562Z,85.48
2018-07-09T02:57:43.702Z,84.84
2018-07-09T03:00:11.601Z,86.14
2018-07-09T03:02:39.730Z,86.26
2018-07-09T03:05:07.585Z,86.24
2018-07-09T03:07:35.448Z,85.67
2018-07-09T03:10:03.399Z,85.55
2018-07-09T03:12:31.225Z,85.14
2018-07-09T03:14:59.058Z,84.89
2018-07-09T03:17:26.893Z,84.53
2018-07-09T03:19:54.717Z,84.99
2018-07-09T03:22:22.538Z,84.55
2018-07-09T03:24:50.368Z,84.96
2018-07-09T03:27:18.181Z,84.63
2018-07-09T03:29:46.022Z,84.72
2018-07-09T03:32:13.862Z,83.92
2018-07-09T03:34:41.667Z,83.68
2018-07-09T03:37:09.497Z,83.57
2018-07-09T03:39:37.312Z,83.68
2018-07-09T03:42:05.233Z,83.68
2018-07-09T03:44:33.046Z,84.04
2018-07-09T03:47:00.849Z,83.80
2018-07-09T03:49:28.712Z,84.29
2018-07-09T03:51:56.561Z,83.51
2018-07-09T03:54:24.375Z,83.05
2018-07-09T03:56:53.217Z,83.91
2018-07-09T03:59:21.029Z,83.64
2018-07-09T04:01:48.909Z,83.02
2018-07-09T04:04:16.734Z,84.55
2018-07-09T04:06:44.568Z,84.63
2018-07-09T04:09:12.396Z,85.40
2018-07-09T04:11:40.269Z,84.92
2018-07-09T04:14:08.189Z,84.52
2018-07-09T04:16:36.084Z,84.76
2018-07-09T04:19:03.953Z,84.61
2018-07-09T04:21:31.824Z,84.54
2018-07-09T04:23:59.654Z,83.95
2018-07-09T04:26:27.486Z,83.79
2018-07-09T04:28:55.326Z,83.56
2018-07-09T04:31:23.137Z,84.79
2018-07-09T04:33:50.984Z,84.07
2018-07-09T04:36:18.793Z,83.89
2018-07-09T04:38:46.600Z,83.39
2018-07-09T04:41:14.453Z,83.09
2018-07-09T04:43:42.280Z,83.25
2018-07-09T04:46:10.134Z,82.45
2018-07-09T04:48:37.956Z,82.06
2018-07-09T04:51:05.869Z,80.96
2018-07-09T04:53:33.727Z,81.24
2018-07-09T04:56:01.559Z,81.53
2018-07-09T04:58:29.389Z,81.57
2018-07-09T05:00:57.237Z,81.82
2018-07-09T05:03:25.086Z,82.18
2018-07-09T05:05:53.189Z,82.51
2018-07-09T05:08:21.094Z,81.56
2018-07-09T05:10:48.949Z,82.51
2018-07-09T05:13:16.770Z,81.48
2018-07-09T05:15:44.629Z,81.49
2018-07-09T05:18:12.461Z,81.42
2018-07-09T05:20:40.315Z,79.99
2018-07-09T05:23:08.225Z,79.40
2018-07-09T05:25:36.081Z,79.28
2018-07-09T05:28:03.963Z,79.74
2018-07-09T05:30:31.810Z,79.06
2018-07-09T05:32:59.661Z,78.61
2018-07-09T05:35:27.558Z,79.11
2018-07-09T05:37:55.694Z,79.38
2018-07-09T05:40:23.635Z,79.88
2018-07-09T05:42:51.611Z,79.81
2018-07-09T05:45:19.494Z,79.60
2018-07-09T05:47:47.490Z,79.52
2018-07-09T05:50:15.509Z,77.75
2018-07-09T05:52:43.405Z,78.28
2018-07-09T05:55:11.763Z,81.00
2018-07-09T05:57:39.602Z,81.34
2018-07-09T06:00:07.522Z,82.24
2018-07-09T06:02:35.389Z,81.88
2018-07-09T06:05:03.281Z,81.05
2018-07-09T06:07:31.131Z,82.22
2018-07-09T06:09:58.953Z,81.81
2018-07-09T06:12:26.793Z,80.94
2018-07-09T06:14:54.654Z,80.83
2018-07-09T06:17:22.469Z,81.08
2018-07-09T06:19:50.295Z,81.78
2018-07-09T06:22:18.125Z,82.09
2018-07-09T06:24:46.013Z,82.22
2018-07-09T06:27:13.904Z,81.37
2018-07-09T06:29:41.813Z,81.14
2018-07-09T06:32:09.763Z,81.63
2018-07-09T06:34:37.623Z,82.59
2018-07-09T06:37:05.594Z,81.03
2018-07-09T06:39:33.517Z,77.33
2018-07-09T06:42:01.393Z,75.79
2018-07-09T06:44:29.324Z,75.58
2018-07-09T06:46:57.188Z,73.85
2018-07-09T06:49:25.054Z,73.50
2018-07-09T06:51:52.918Z,75.19
2018-07-09T06:54:20.755Z,76.84
2018-07-09T06:56:48.711Z,76.30
2018-07-09T06:59:16.583Z,75.46
2018-07-09T07:01:44.482Z,72.84
2018-07-09T07:04:12.365Z,75.40
2018-07-09T07:06:40.423Z,74.74
2018-07-09T07:09:08.480Z,75.01
2018-07-09T07:11:36.390Z,75.47
2018-07-09T07:14:04.465Z,73.04
2018-07-09T07:16:32.499Z,73.16
2018-07-09T07:19:00.326Z,75.11
2018-07-09T07:21:28.473Z,77.95
2018-07-09T07:23:56.321Z,78.96
2018-07-09T07:26:24.411Z,78.55
2018-07-09T07:28:52.360Z,80.62
2018-07-09T07:31:20.293Z,80.28
2018-07-09T07:33:48.461Z,79.98
2018-07-09T07:36:16.484Z,79.53
2018-07-09T07:38:44.659Z,80.40
2018-07-09T07:41:12.483Z,80.71
2018-07-09T07:43:40.357Z,79.80
2018-07-09T07:46:08.527Z,79.79
2018-07-09T07:48:36.378Z,79.66
2018-07-09T07:51:04.217Z,79.68
2018-07-09T07:53:32.041Z,79.96
2018-07-09T07:55:59.870Z,78.60
2018-07-09T07:58:27.757Z,78.43
2018-07-09T08:00:55.630Z,79.14
2018-07-09T08:03:23.449Z,78.75
2018-07-09T08:05:51.414Z,78.03
2018-07-09T08:08:19.302Z,78.26
2018-07-09T08:10:47.246Z,76.41
2018-07-09T08:13:27.992Z,76.07
2018-07-09T08:15:43.045Z,75.49
2018-07-09T08:18:10.944Z,74.04
2018-07-09T08:20:39.186Z,74.70
2018-07-09T08:23:07.446Z,74.83
2018-07-09T08:25:35.677Z,73.14
2018-07-09T08:28:03.489Z,69.35
2018-07-09T08:30:31.306Z,67.61
2018-07-09T08:32:59.204Z,63.65
2018-07-09T08:35:27.601Z,64.53
2018-07-09T08:37:55.466Z,61.21
2018-07-09T08:40:23.347Z,62.81
2018-07-09T08:42:51.246Z,63.55
2018-07-09T08:45:19.119Z,61.25
2018-07-09T08:47:46.940Z,63.26
2018-07-09T08:50:14.854Z,63.74
2018-07-09T08:52:42.769Z,64.83
2018-07-09T08:55:11.115Z,62.27
2018-07-09T08:57:39.021Z,63.77
2018-07-09T09:00:06.921Z,60.69
2018-07-09T09:02:34.850Z,59.51
2018-07-09T09:05:02.695Z,62.67
2018-07-09T09:07:30.514Z,63.71
2018-07-09T09:09:58.399Z,62.80
2018-07-09T09:12:26.315Z,63.31
2018-07-09T09:14:54.122Z,59.82
2018-07-09T09:17:22.034Z,58.81
2018-07-09T09:19:49.861Z,57.67
2018-07-09T09:22:17.714Z,57.58
2018-07-09T09:24:45.835Z,54.94
2018-07-09T09:27:14.301Z,56.87
2018-07-09T09:29:42.161Z,56.31
2018-07-09T09:32:10.070Z,54.95
2018-07-09T09:34:37.906Z,53.78
2018-07-09T09:37:05.879Z,56.00
2018-07-09T09:39:35.173Z,58.60
2018-07-09T09:42:03.163Z,59.34
2018-07-09T09:44:31.006Z,54.73
2018-07-09T09:46:58.894Z,54.12
2018-07-09T09:49:27.211Z,53.59
2018-07-09T09:51:55.006Z,52.12
2018-07-09T09:54:22.863Z,52.08
2018-07-09T09:56:51.221Z,54.60
2018-07-09T09:59:19.110Z,54.28
2018-07-09T10:01:46.909Z,55.58
2018-07-09T10:04:14.690Z,57.70
2018-07-09T10:06:42.656Z,55.14
2018-07-09T10:09:10.529Z,53.57
2018-07-09T10:11:38.814Z,53.22
2018-07-09T10:14:06.996Z,52.26
2018-07-09T10:16:34.889Z,49.04
2018-07-09T10:19:02.798Z,47.01
2018-07-09T10:21:30.673Z,53.24
2018-07-09T10:23:58.570Z,50.47
2018-07-09T10:26:26.436Z,50.43
2018-07-09T10:28:54.317Z,49.54
2018-07-09T10:31:22.193Z,48.68
2018-07-09T10:33:50.080Z,49.10
2018-07-09T10:36:18.036Z,47.39
2018-07-09T10:38:45.916Z,47.42
2018-07-09T10:41:13.781Z,47.12
2018-07-09T10:43:41.667Z,53.80
2018-07-09T10:46:09.593Z,55.71
2018-07-09T10:48:37.459Z,51.64
2018-07-09T10:51:05.453Z,49.46
2018-07-09T10:53:33.303Z,47.58
2018-07-09T10:56:01.218Z,45.67
2018-07-09T10:58:29.103Z,45.14
2018-07-09T11:00:57.004Z,46.22
2018-07-09T11:03:24.880Z,46.32
2018-07-09T11:05:53.129Z,50.67
2018-07-09T11:08:20.990Z,50.87
2018-07-09T11:10:48.870Z,51.67
2018-07-09T11:13:16.828Z,51.78
2018-07-09T11:15:44.731Z,51.07
2018-07-09T11:18:12.935Z,49.01
2018-07-09T11:20:40.857Z,46.99
2018-07-09T11:23:08.721Z,49.10
2018-07-09T11:25:36.554Z,50.44
2018-07-09T11:28:04.541Z,47.96
2018-07-09T11:30:32.429Z,49.77
2018-07-09T11:33:00.333Z,48.22
2018-07-09T11:35:28.207Z,49.10
2018-07-09T11:37:56.119Z,47.28
2018-07-09T11:40:23.972Z,50.21
2018-07-09T11:42:51.830Z,46.26
2018-07-09T11:45:19.702Z,48.27
2018-07-09T11:47:47.521Z,45.44
2018-07-09T11:50:15.404Z,43.40
2018-07-09T11:52:43.318Z,45.49
2018-07-09T11:55:11.214Z,47.66
2018-07-09T11:57:39.103Z,45.88
2018-07-09T12:00:07.155Z,45.88
2018-07-09T12:02:35.100Z,46.34
2018-07-09T12:05:03.075Z,47.13
2018-07-09T12:07:30.963Z,47.44
2018-07-09T12:09:59.214Z,46.63
2018-07-09T12:12:27.161Z,44.58
2018-07-09T12:14:55.189Z,44.82
2018-07-09T12:17:23.061Z,42.71
2018-07-09T12:19:50.924Z,46.80
2018-07-09T12:22:19.266Z,45.61
2018-07-09T12:24:47.146Z,43.68
2018-07-09T12:27:15.058Z,46.15
2018-07-09T12:29:42.916Z,47.02
2018-07-09T12:32:10.804Z,46.00
2018-07-09T12:34:38.827Z,46.79
2018-07-09T12:37:06.749Z,45.27
2018-07-09T12:39:34.619Z,43.74
2018-07-09T12:42:02.476Z,42.55
2018-07-09T12:44:30.387Z,41.51
2018-07-09T12:46:58.259Z,42.79
2018-07-09T12:49:27.346Z,43.53
2018-07-09T12:51:55.324Z,48.94
2018-07-09T12:54:23.185Z,46.51
2018-07-09T12:56:51.025Z,50.82
2018-07-09T12:59:18.913Z,49.55
2018-07-09T13:01:46.838Z,52.63
2018-07-09T13:04:14.706Z,52.70
2018-07-09T13:06:43.741Z,49.26
2018-07-09T13:09:11.711Z,43.72
2018-07-09T13:11:39.991Z,45.26
2018-07-09T13:14:07.994Z,49.31
2018-07-09T13:16:35.881Z,46.29
2018-07-09T13:19:03.804Z,46.12
2018-07-09T13:21:31.715Z,46.57
2018-07-09T13:23:59.669Z,46.08
2018-07-09T13:26:27.481Z,43.55
2018-07-09T13:28:55.384Z,42.33
2018-07-09T13:31:23.388Z,42.13
2018-07-09T13:33:51.407Z,44.63
2018-07-09T13:36:19.222Z,44.24
2018-07-09T13:38:47.393Z,41.78
2018-07-09T13:41:15.241Z,44.78
2018-07-09T13:43:43.283Z,43.02
2018-07-09T13:46:11.206Z,42.05
2018-07-09T13:48:39.158Z,41.57
2018-07-09T13:51:07.049Z,41.68
2018-07-09T13:53:34.953Z,40.48
2018-07-09T13:56:02.822Z,39.61
2018-07-09T13:58:30.882Z,40.65
2018-07-09T14:00:58.758Z,42.67
2018-07-09T14:03:26.650Z,42.24
2018-07-09T14:05:54.673Z,42.99
2018-07-09T14:08:22.454Z,44.20
2018-07-09T14:10:50.315Z,43.74
2018-07-09T14:13:18.164Z,43.98
2018-07-09T14:15:46.025Z,47.90
2018-07-09T14:18:13.935Z,44.82
2018-07-09T14:20:43.828Z,45.32
2018-07-09T14:23:14.406Z,44.74
2018-07-09T14:25:42.525Z,46.88
2018-07-09T14:28:10.420Z,48.09
2018-07-09T14:30:38.367Z,46.06
2018-07-09T14:33:06.531Z,45.36
2018-07-09T14:35:34.567Z,46.44
2018-07-09T14:38:02.370Z,46.22
2018-07-09T14:40:30.237Z,46.41
2018-07-09T14:42:58.154Z,49.04
2018-07-09T14:45:26.022Z,49.42
2018-07-09T14:47:53.851Z,48.81
2018-07-09T14:50:21.750Z,52.94
2018-07-09T14:52:49.666Z,53.19
2018-07-09T14:55:17.593Z,51.17
2018-07-09T14:57:45.418Z,53.87
2018-07-09T15:00:13.304Z,53.91
2018-07-09T15:02:41.202Z,53.85
2018-07-09T15:05:09.097Z,53.16
2018-07-09T15:07:36.997Z,53.12
2018-07-09T15:10:04.972Z,53.33
2018-07-09T15:12:32.834Z,53.21
2018-07-09T15:15:00.767Z,51.54
2018-07-09T15:17:28.629Z,52.62
2018-07-09T15:19:56.485Z,54.64
2018-07-09T15:22:24.331Z,53.67
2018-07-09T15:24:52.182Z,52.11
2018-07-09T15:27:19.973Z,51.57
2018-07-09T15:29:47.884Z,51.16
2018-07-09T15:32:17.996Z,51.60
2018-07-09T15:34:45.800Z,51.41
2018-07-09T15:37:13.704Z,52.60
2018-07-09T15:39:41.938Z,54.85
2018-07-09T15:42:09.804Z,53.50
2018-07-09T15:44:37.591Z,54.09
2018-07-09T15:47:05.542Z,53.57
2018-07-09T15:49:33.546Z,52.93
2018-07-09T15:52:01.354Z,51.77
2018-07-09T15:54:29.187Z,51.55
2018-07-09T15:56:57.066Z,49.72
2018-07-09T15:59:24.989Z,49.78
2018-07-09T16:01:52.797Z,51.57
2018-07-09T16:04:20.656Z,54.33
2018-07-09T16:06:48.515Z,53.06
2018-07-09T16:09:16.453Z,52.70
2018-07-09T16:11:44.387Z,52.96
2018-07-09T16:14:12.165Z,56.26
2018-07-09T16:16:40.109Z,57.94
2018-07-09T16:19:07.926Z,56.86
2018-07-09T16:21:35.710Z,58.19
2018-07-09T16:24:03.688Z,57.58
2018-07-09T16:26:31.470Z,57.50
2018-07-09T16:28:59.274Z,56.38
2018-07-09T16:31:27.154Z,58.52
2018-07-09T16:33:54.953Z,58.10
2018-07-09T16:36:22.822Z,59.39
2018-07-09T16:38:51.493Z,58.27
2018-07-09T16:41:19.383Z,56.91
2018-07-09T16:43:47.175Z,56.99
2018-07-09T16:46:14.961Z,56.84
2018-07-09T16:48:42.759Z,56.78
2018-07-09T16:51:10.581Z,56.55
2018-07-09T16:53:38.485Z,57.43
2018-07-09T16:56:06.682Z,58.72
2018-07-09T16:58:34.530Z,59.22
2018-07-09T17:01:02.446Z,58.96
2018-07-09T17:03:30.698Z,60.60
2018-07-09T17:05:58.615Z,59.43
2018-07-09T17:08:26.427Z,60.03
2018-07-09T17:10:54.205Z,59.67
2018-07-09T17:13:21.996Z,60.12
2018-07-09T17:15:49.799Z,59.66
2018-07-09T17:18:17.584Z,59.79
2018-07-09T17:20:45.403Z,61.13
2018-07-09T17:23:13.175Z,62.35
2018-07-09T17:25:41.062Z,63.49
2018-07-09T17:28:08.862Z,64.89
2018-07-09T17:30:36.680Z,64.13
2018-07-09T17:33:04.545Z,64.92
2018-07-09T17:35:32.349Z,65.46
2018-07-09T17:38:00.172Z,65.16
2018-07-09T17:40:27.982Z,64.78
2018-07-09T17:42:55.765Z,64.35
2018-07-09T17:45:23.606Z,63.74
2018-07-09T17:47:52.331Z,66.44
2018-07-09T17:50:20.226Z,65.48
2018-07-09T17:52:48.311Z,65.93
2018-07-09T17:55:16.179Z,64.97
2018-07-09T17:57:44.005Z,65.25
2018-07-09T18:00:11.825Z,65.28
2018-07-09T18:02:39.669Z,66.21
2018-07-09T18:05:07.547Z,65.28
2018-07-09T18:07:35.334Z,66.39
2018-07-09T18:10:03.257Z,66.75
2018-07-09T18:12:31.372Z,65.56
2018-07-09T18:14:59.150Z,66.51
2018-07-09T18:17:26.969Z,65.63
2018-07-09T18:19:54.801Z,66.75
2018-07-09T18:22:22.710Z,66.90
2018-07-09T18:24:50.477Z,67.97
2018-07-09T18:27:18.298Z,67.66
2018-07-09T18:29:46.501Z,67.17
2018-07-09T18:32:14.403Z,67.37
2018-07-09T18:34:42.408Z,66.82
2018-07-09T18:37:10.187Z,67.22
2018-07-09T18:39:38.015Z,66.74
2018-07-09T18:42:06.138Z,67.14
2018-07-09T18:44:34.039Z,67.89
2018-07-09T18:47:02.260Z,68.90
2018-07-09T18:49:30.177Z,68.95
2018-07-09T18:51:57.998Z,69.81
2018-07-09T18:54:25.807Z,71.03
2018-07-09T18:56:53.976Z,69.72
2018-07-09T18:59:21.945Z,70.38
2018-07-09T19:01:49.822Z,69.62
2018-07-09T19:04:17.696Z,71.04
2018-07-09T19:06:49.204Z,71.49
2018-07-09T19:09:17.134Z,70.91
2018-07-09T19:11:45.042Z,70.89
2018-07-09T19:14:13.051Z,71.23
2018-07-09T19:16:52.493Z,71.73
2018-07-09T19:19:31.702Z,71.70
2018-07-09T19:22:00.841Z,72.17
2018-07-09T19:24:27.853Z,72.00
2018-07-09T19:26:54.861Z,73.34
2018-07-09T19:29:21.521Z,73.63
2018-07-09T19:31:48.125Z,74.49
2018-07-09T19:34:14.722Z,73.05
2018-07-09T19:36:41.448Z,73.05
2018-07-09T19:39:08.637Z,72.19
2018-07-09T19:41:35.293Z,71.67
2018-07-09T19:44:01.943Z,71.56
2018-07-09T19:46:28.562Z,72.09
2018-07-09T19:48:55.445Z,72.08
2018-07-09T19:51:22.303Z,73.93
2018-07-09T19:53:48.848Z,74.86
2018-07-09T19:56:15.474Z,75.72
2018-07-09T19:58:42.312Z,77.26
2018-07-09T20:01:08.870Z,78.47
2018-07-09T20:03:35.485Z,78.53
2018-07-09T20:06:02.063Z,78.82
2018-07-09T20:08:34.276Z,79.71
2018-07-09T20:11:06.371Z,79.01
2018-07-09T20:14:03.484Z,79.50
2018-07-09T20:16:35.479Z,79.15
2018-07-09T20:19:02.376Z,79.58
2018-07-09T20:21:29.654Z,78.23
2018-07-09T20:23:56.539Z,78.22
2018-07-09T20:26:23.094Z,79.90
2018-07-09T20:28:49.798Z,79.81
2018-07-09T20:31:16.417Z,79.94
2018-07-09T20:33:42.970Z,79.69
2018-07-09T20:36:09.661Z,79.29
2018-07-09T20:38:36.394Z,79.71
2018-07-09T20:41:02.998Z,79.97
2018-07-09T20:43:29.615Z,79.84
2018-07-09T20:45:56.231Z,80.29
2018-07-09T20:48:22.866Z,80.36
2018-07-09T20:50:49.490Z,79.51
2018-07-09T20:53:16.151Z,78.62
2018-07-09T20:55:42.777Z,79.63
2018-07-09T20:58:09.525Z,78.81
2018-07-09T21:00:36.168Z,79.96
2018-07-09T21:03:02.867Z,79.76
2018-07-09T21:05:29.401Z,79.96
2018-07-09T21:07:55.986Z,80.67
2018-07-09T21:10:22.570Z,80.34
2018-07-09T21:12:57.009Z,79.31
2018-07-09T21:15:24.945Z,80.50
2018-07-09T21:17:51.446Z,81.00
2018-07-09T21:20:18.704Z,80.43
2018-07-09T21:22:45.617Z,81.28
2018-07-09T21:25:12.467Z,83.18
2018-07-09T21:27:39.328Z,83.34
2018-07-09T21:30:05.954Z,83.28
2018-07-09T21:32:32.497Z,82.39
2018-07-09T21:34:59.025Z,82.87
2018-07-09T21:37:25.672Z,82.92
2018-07-09T21:39:52.434Z,82.27
2018-07-09T21:42:18.995Z,82.67
2018-07-09T21:44:45.590Z,80.72
2018-07-09T21:47:12.159Z,81.53
2018-07-09T21:49:38.694Z,80.80
2018-07-09T21:52:05.274Z,81.27
2018-07-09T21:54:31.805Z,81.54
2018-07-09T21:56:58.330Z,81.42
2018-07-09T21:59:24.857Z,82.22
2018-07-09T22:01:51.386Z,82.76
2018-07-09T22:04:18.157Z,82.31
2018-07-09T22:06:44.688Z,82.07
2018-07-09T22:09:11.218Z,81.81
2018-07-09T22:11:37.814Z,81.39
2018-07-09T22:14:04.441Z,81.10
2018-07-09T22:16:30.970Z,80.83
2018-07-09T22:18:58.967Z,81.35
2018-07-09T22:21:25.493Z,81.03
2018-07-09T22:23:52.026Z,81.32
2018-07-09T22:26:18.564Z,81.64
2018-07-09T22:28:45.493Z,81.20
2018-07-09T22:31:13.278Z,80.85
2018-07-09T22:33:41.062Z,82.26
2018-07-09T22:36:08.881Z,81.71
2018-07-09T22:38:36.758Z,82.05
2018-07-09T22:41:04.526Z,83.04
2018-07-09T22:43:43.561Z,81.64
2018-07-09T22:46:11.323Z,83.38
2018-07-09T22:48:39.130Z,83.78
2018-07-09T22:51:07.040Z,84.71
2018-07-09T22:53:34.767Z,84.74
2018-07-09T22:56:10.319Z,84.64
2018-07-09T22:58:39.609Z,84.06
2018-07-09T23:01:07.808Z,84.31
2018-07-09T23:03:35.672Z,83.82
2018-07-09T23:06:03.641Z,84.22
2018-07-09T23:08:31.536Z,83.93
2018-07-09T23:11:35.678Z,83.82
2018-07-09T23:14:45.790Z,83.72
2018-07-09T23:17:24.587Z,83.50
2018-07-09T23:20:35.359Z,82.74
2018-07-09T23:23:01.945Z,82.12
2018-07-09T23:25:28.543Z,82.38
2018-07-09T23:27:55.167Z,82.63
2018-07-09T23:30:21.794Z,82.72
2018-07-09T23:32:48.430Z,82.86
2018-07-09T23:35:15.073Z,81.74
2018-07-09T23:37:43.086Z,82.29
2018-07-09T23:40:09.673Z,82.18
2018-07-09T23:42:36.313Z,83.03
2018-07-09T23:45:02.919Z,83.24
2018-07-09T23:47:29.538Z,83.96
2018-07-09T23:49:56.158Z,83.60
2018-07-09T23:52:22.786Z,82.28
2018-07-09T23:54:49.780Z,82.15
2018-07-09T23:57:29.252Z,83.01
